Terminal Aerodrome Forecast
Issued by NWS

Home | Current Version | Previous Version | Graphics & Text | Print | Product List | Glossary On
Versions: 1 2 3 4 5 6 7 8 9 10 11 12 13 14 15 16 17 18 19 20 21 22 23 24
000
FTUS43 KBIS 221729
TAFJMS
TAF
KJMS 221729Z 2218/2318 26013KT P6SM FEW060
     FM222300 31011G19KT P6SM BKN050
     FM230200 04011G19KT P6SM SCT080
     FM230600 05012G20KT P6SM BKN015 OVC080
     FM230700 05011G19KT P6SM VCSH OVC015
     FM231100 06011G19KT P6SM OVC015=

USA.gov is the U.S. government's official web portal to all federal, state and local government web resources and services.